Unity, Oregon
Current Conditions -  °F | °C
As of 5:53 AM on Monday 20 Oct 2014 (Local Time) from KBKE Reporting Station
Clear Clear  
Wind Chill: 37°   Ceiling: Unl
Heat Index: 43°   Visibility: 10mi
Dew Point: 31°   Wind: 10mph
Humidity: 62%   Direction: 120°ESE
Pressure: 29.84"   Gusts: NA
Location:  44.44°N, 118.19°W
Report Text: KBKE 201253Z AUTO 12009KT 10SM CLR 06/M01 A2984 RMK AO2 SLP100 T00611006
Loading
Personal Weather Stations






























Interactive Weather Map
Tropical Storm Tracking
New forecast layout! Learn more

10-Day Weather Forecast

Advertisements
Track Severe Weather on mobile